createdAt,value
2018-10-19T00:00:25.235Z,13.40
2018-10-19T00:02:54.273Z,13.40
2018-10-19T00:05:22.843Z,13.40
2018-10-19T00:07:51.448Z,13.40
2018-10-19T00:10:20.000Z,13.40
2018-10-19T00:12:48.565Z,13.40
2018-10-19T00:15:17.235Z,13.40
2018-10-19T00:17:45.556Z,13.40
2018-10-19T00:20:15.172Z,13.40
2018-10-19T00:22:43.705Z,13.30
2018-10-19T00:25:12.195Z,13.30
2018-10-19T00:27:40.822Z,13.30
2018-10-19T00:30:10.502Z,13.30
2018-10-19T00:32:39.054Z,13.30
2018-10-19T00:35:08.412Z,13.30
2018-10-19T00:37:37.000Z,13.20
2018-10-19T00:40:06.126Z,13.20
2018-10-19T00:42:34.648Z,13.10
2018-10-19T00:45:03.227Z,13.10
2018-10-19T00:47:31.746Z,13.00
2018-10-19T00:50:00.320Z,13.00
2018-10-19T00:52:28.829Z,12.90
2018-10-19T00:54:58.050Z,12.90
2018-10-19T00:57:26.646Z,12.80
2018-10-19T00:59:55.170Z,12.80
2018-10-19T01:02:23.678Z,12.70
2018-10-19T01:04:52.243Z,12.70
2018-10-19T01:07:20.769Z,12.60
2018-10-19T01:09:49.412Z,12.60
2018-10-19T01:12:17.924Z,12.60
2018-10-19T01:14:46.449Z,12.70
2018-10-19T01:17:15.029Z,12.70
2018-10-19T01:19:43.612Z,12.70
2018-10-19T01:22:12.115Z,12.70
2018-10-19T01:24:40.633Z,12.70
2018-10-19T01:27:09.199Z,12.80
2018-10-19T01:29:37.779Z,12.80
2018-10-19T01:32:06.357Z,12.80
2018-10-19T01:34:34.940Z,12.80
2018-10-19T01:37:05.071Z,12.80
2018-10-19T01:39:33.588Z,12.80
2018-10-19T01:42:02.088Z,12.80
2018-10-19T01:44:32.534Z,12.80
2018-10-19T01:47:01.095Z,12.80
2018-10-19T01:49:29.557Z,12.80
2018-10-19T01:51:59.900Z,12.90
2018-10-19T01:54:28.391Z,12.90
2018-10-19T01:56:56.925Z,12.80
2018-10-19T01:59:25.441Z,12.80
2018-10-19T02:01:53.936Z,12.80
2018-10-19T02:04:22.494Z,12.90
2018-10-19T02:06:51.057Z,12.90
2018-10-19T02:09:19.546Z,12.90
2018-10-19T02:11:48.060Z,12.80
2018-10-19T02:14:16.555Z,12.90
2018-10-19T02:16:46.153Z,12.90
2018-10-19T02:19:14.629Z,12.80
2018-10-19T02:21:43.600Z,12.80
2018-10-19T02:24:12.771Z,12.80
2018-10-19T02:26:41.570Z,12.80
2018-10-19T02:29:10.223Z,12.80
2018-10-19T02:31:38.677Z,12.80
2018-10-19T02:34:07.425Z,12.80
2018-10-19T02:36:35.956Z,12.80
2018-10-19T02:39:05.746Z,12.80
2018-10-19T02:41:34.597Z,12.80
2018-10-19T02:44:03.290Z,12.80
2018-10-19T02:46:31.884Z,12.80
2018-10-19T02:49:00.522Z,12.80
2018-10-19T02:51:29.053Z,12.80
2018-10-19T02:53:57.564Z,12.80
2018-10-19T02:56:26.119Z,12.70
2018-10-19T02:58:54.711Z,12.70
2018-10-19T03:01:23.269Z,12.70
2018-10-19T03:03:51.775Z,12.70
2018-10-19T03:06:20.343Z,12.70
2018-10-19T03:08:48.834Z,12.70
2018-10-19T03:11:17.477Z,12.60
2018-10-19T03:13:45.941Z,12.60
2018-10-19T03:16:14.453Z,12.70
2018-10-19T03:18:42.969Z,12.70
2018-10-19T03:21:11.540Z,12.70
2018-10-19T03:23:40.224Z,12.60
2018-10-19T03:26:09.542Z,12.60
2018-10-19T03:28:38.148Z,12.60
2018-10-19T03:31:06.921Z,12.60
2018-10-19T03:33:35.410Z,12.60
2018-10-19T03:36:04.162Z,12.60
2018-10-19T03:38:32.767Z,12.50
2018-10-19T03:41:01.279Z,12.60
2018-10-19T03:43:29.807Z,12.50
2018-10-19T03:45:58.330Z,12.50
2018-10-19T03:48:26.995Z,12.40
2018-10-19T03:50:55.672Z,12.40
2018-10-19T03:53:24.130Z,12.40
2018-10-19T03:55:52.752Z,12.40
2018-10-19T03:58:21.262Z,12.30
2018-10-19T04:00:49.920Z,12.30
2018-10-19T04:03:18.712Z,12.30
2018-10-19T04:05:47.134Z,12.30
2018-10-19T04:08:15.656Z,12.30
2018-10-19T04:10:44.140Z,12.20
2018-10-19T04:13:12.946Z,12.30
2018-10-19T04:15:41.538Z,12.20
2018-10-19T04:18:10.090Z,12.20
2018-10-19T04:20:38.700Z,12.20
2018-10-19T04:23:08.456Z,12.20
2018-10-19T04:25:38.326Z,12.20
2018-10-19T04:28:07.008Z,12.20
2018-10-19T04:30:36.844Z,12.20
2018-10-19T04:33:06.067Z,12.20
2018-10-19T04:35:34.705Z,12.20
2018-10-19T04:38:03.816Z,12.20
2018-10-19T04:40:32.326Z,12.20
2018-10-19T04:43:01.130Z,12.10
2018-10-19T04:45:29.645Z,12.10
2018-10-19T04:47:58.258Z,12.00
2018-10-19T04:50:27.381Z,12.00
2018-10-19T04:52:55.982Z,12.00
2018-10-19T04:55:24.459Z,12.00
2018-10-19T04:57:53.099Z,12.00
2018-10-19T05:00:22.298Z,12.00
2018-10-19T05:02:51.757Z,12.00
2018-10-19T05:05:20.801Z,11.90
2018-10-19T05:07:49.114Z,11.90
2018-10-19T05:10:17.659Z,11.90
2018-10-19T05:12:46.188Z,11.90
2018-10-19T05:15:14.813Z,11.90
2018-10-19T05:17:43.331Z,11.90
2018-10-19T05:20:13.444Z,11.90
2018-10-19T05:22:41.871Z,11.90
2018-10-19T05:25:11.885Z,11.90
2018-10-19T05:27:40.615Z,11.90
2018-10-19T05:30:11.181Z,11.80
2018-10-19T05:32:40.538Z,11.80
2018-10-19T05:35:09.296Z,11.80
2018-10-19T05:37:38.947Z,11.80
2018-10-19T05:40:08.810Z,11.80
2018-10-19T05:42:37.645Z,11.80
2018-10-19T05:45:08.123Z,11.80
2018-10-19T05:47:36.663Z,11.80
2018-10-19T05:50:06.155Z,11.80
2018-10-19T05:52:34.877Z,11.70
2018-10-19T05:55:03.463Z,11.70
2018-10-19T05:57:32.237Z,11.70
2018-10-19T06:00:01.647Z,11.70
2018-10-19T06:02:30.868Z,11.70
2018-10-19T06:04:59.403Z,11.70
2018-10-19T06:07:28.078Z,11.70
2018-10-19T06:09:56.629Z,11.70
2018-10-19T06:12:25.176Z,11.60
2018-10-19T06:14:53.727Z,11.60
2018-10-19T06:17:22.356Z,11.60
2018-10-19T06:19:50.943Z,11.60
2018-10-19T06:22:19.566Z,11.60
2018-10-19T06:24:48.133Z,11.60
2018-10-19T06:27:16.609Z,11.60
2018-10-19T06:29:45.279Z,11.60
2018-10-19T06:32:13.779Z,11.50
2018-10-19T06:34:42.271Z,11.50
2018-10-19T06:37:10.775Z,11.50
2018-10-19T06:39:39.293Z,11.50
2018-10-19T06:42:07.818Z,11.40
2018-10-19T06:44:38.823Z,11.50
2018-10-19T06:47:07.788Z,11.40
2018-10-19T06:49:36.507Z,11.50
2018-10-19T06:52:05.208Z,11.50
2018-10-19T06:54:33.720Z,11.50
2018-10-19T06:57:02.346Z,11.50
2018-10-19T06:59:30.993Z,11.50
2018-10-19T07:01:59.527Z,11.50
2018-10-19T07:04:28.084Z,11.60
2018-10-19T07:06:56.687Z,11.60
2018-10-19T07:09:25.254Z,11.60
2018-10-19T07:11:54.903Z,11.70
2018-10-19T07:14:24.604Z,11.70
2018-10-19T07:16:53.183Z,11.70
2018-10-19T07:19:21.715Z,11.70
2018-10-19T07:21:50.369Z,11.80
2018-10-19T07:24:20.046Z,11.70
2018-10-19T07:26:49.520Z,11.70
2018-10-19T07:29:18.173Z,11.70
2018-10-19T07:31:46.606Z,11.70
2018-10-19T07:34:15.125Z,11.80
2018-10-19T07:36:43.704Z,11.80
2018-10-19T07:39:12.283Z,11.80
2018-10-19T07:41:40.818Z,11.80
2018-10-19T07:44:09.372Z,11.90
2018-10-19T07:46:37.914Z,11.90
2018-10-19T07:49:06.460Z,11.90
2018-10-19T07:51:34.968Z,11.90
2018-10-19T07:54:03.537Z,12.00
2018-10-19T07:56:32.018Z,12.10
2018-10-19T07:59:00.583Z,12.10
2018-10-19T08:01:29.140Z,12.10
2018-10-19T08:03:57.668Z,12.20
2018-10-19T08:06:26.188Z,12.10
2018-10-19T08:08:54.801Z,12.20
2018-10-19T08:11:23.573Z,12.20
2018-10-19T08:13:52.476Z,12.20
2018-10-19T08:16:21.088Z,12.20
2018-10-19T08:18:50.255Z,12.30
2018-10-19T08:21:18.833Z,12.20
2018-10-19T08:23:47.429Z,12.20
2018-10-19T08:26:16.007Z,12.30
2018-10-19T08:28:44.542Z,12.30
2018-10-19T08:31:13.059Z,12.30
2018-10-19T08:33:41.624Z,12.30
2018-10-19T08:36:10.285Z,12.30
2018-10-19T08:38:38.801Z,12.30
2018-10-19T08:41:07.476Z,12.30
2018-10-19T08:43:35.963Z,12.40
2018-10-19T08:46:09.799Z,12.30
2018-10-19T08:48:38.356Z,12.30
2018-10-19T08:51:08.061Z,12.30
2018-10-19T08:53:36.624Z,12.40
2018-10-19T08:56:05.558Z,12.40
2018-10-19T08:58:34.165Z,12.50
2018-10-19T09:01:02.793Z,12.60
2018-10-19T09:03:31.375Z,12.60
2018-10-19T09:05:59.882Z,12.60
2018-10-19T09:08:28.402Z,12.60
2018-10-19T09:10:57.035Z,12.70
2018-10-19T09:13:25.482Z,12.70
2018-10-19T09:15:54.579Z,12.70
2018-10-19T09:18:23.201Z,12.80
2018-10-19T09:20:51.761Z,12.90
2018-10-19T09:23:20.305Z,12.90
2018-10-19T09:25:48.852Z,12.90
2018-10-19T09:28:17.365Z,13.10
2018-10-19T09:30:45.872Z,13.00
2018-10-19T09:33:14.492Z,13.00
2018-10-19T09:35:43.106Z,13.10
2018-10-19T09:38:11.807Z,13.10
2018-10-19T09:40:40.360Z,13.20
2018-10-19T09:43:08.904Z,13.40
2018-10-19T09:45:37.421Z,13.40
2018-10-19T09:48:05.960Z,13.40
2018-10-19T09:50:34.805Z,13.40
2018-10-19T09:53:03.455Z,13.50
2018-10-19T09:55:32.736Z,13.70
2018-10-19T09:58:01.296Z,13.80
2018-10-19T10:00:35.082Z,14.00
2018-10-19T10:03:03.600Z,14.10
2018-10-19T10:05:32.605Z,14.20
2018-10-19T10:08:01.206Z,14.20
2018-10-19T10:10:37.001Z,14.20
2018-10-19T10:13:05.744Z,14.10
2018-10-19T10:15:34.325Z,14.10
2018-10-19T10:18:03.339Z,14.30
2018-10-19T10:20:31.870Z,14.40
2018-10-19T10:23:00.384Z,14.30
2018-10-19T10:25:29.019Z,14.20
2018-10-19T10:27:57.590Z,14.20
2018-10-19T10:30:26.234Z,14.20
2018-10-19T10:32:54.751Z,14.10
2018-10-19T10:35:23.284Z,14.20
2018-10-19T10:37:51.889Z,14.10
2018-10-19T10:40:20.511Z,14.20
2018-10-19T10:42:49.039Z,14.20
2018-10-19T10:45:17.540Z,14.40
2018-10-19T10:47:46.052Z,14.40
2018-10-19T10:50:14.664Z,14.50
2018-10-19T10:52:43.231Z,14.60
2018-10-19T10:55:11.766Z,14.60
2018-10-19T10:57:40.308Z,14.80
2018-10-19T11:00:08.945Z,14.80
2018-10-19T11:02:37.478Z,14.90
2018-10-19T11:05:06.895Z,15.00
2018-10-19T11:07:35.588Z,15.10
2018-10-19T11:10:04.080Z,15.30
2018-10-19T11:12:32.615Z,15.40
2018-10-19T11:15:01.230Z,15.50
2018-10-19T11:17:29.740Z,15.60
2018-10-19T11:19:58.239Z,15.70
2018-10-19T11:22:26.766Z,15.70
2018-10-19T11:24:55.317Z,15.80
2018-10-19T11:27:23.947Z,15.90
2018-10-19T11:29:52.449Z,15.90
2018-10-19T11:32:20.960Z,15.80
2018-10-19T11:34:49.479Z,15.90
2018-10-19T11:37:18.107Z,15.90
2018-10-19T11:39:58.371Z,16.00
2018-10-19T11:42:26.888Z,16.00
2018-10-19T11:44:55.385Z,16.10
2018-10-19T11:47:23.915Z,16.20
2018-10-19T11:49:52.577Z,16.30
2018-10-19T11:52:21.145Z,16.40
2018-10-19T11:54:49.740Z,16.60
2018-10-19T11:57:18.268Z,16.80
2018-10-19T11:59:46.820Z,16.70
2018-10-19T12:02:15.961Z,16.80
2018-10-19T12:04:44.503Z,16.80
2018-10-19T12:07:13.175Z,16.70
2018-10-19T12:09:41.748Z,16.50
2018-10-19T12:12:10.249Z,16.50
2018-10-19T12:14:38.769Z,16.40
2018-10-19T12:17:07.305Z,16.40
2018-10-19T12:19:36.197Z,16.60
2018-10-19T12:22:04.747Z,16.80
2018-10-19T12:24:33.275Z,17.00
2018-10-19T12:27:01.836Z,17.20
2018-10-19T12:29:30.359Z,17.30
2018-10-19T12:31:58.899Z,17.40
2018-10-19T12:34:27.466Z,17.30
2018-10-19T12:36:56.085Z,17.10
2018-10-19T12:39:24.611Z,17.10
2018-10-19T12:41:53.141Z,17.00
2018-10-19T12:44:21.713Z,16.90
2018-10-19T12:47:01.623Z,16.80
2018-10-19T12:49:30.181Z,16.90
2018-10-19T12:51:58.843Z,17.00
2018-10-19T12:54:29.145Z,17.10
2018-10-19T12:56:57.671Z,17.10
2018-10-19T12:59:26.254Z,17.10
2018-10-19T13:01:54.818Z,17.20
2018-10-19T13:04:26.247Z,17.40
2018-10-19T13:06:54.813Z,17.50
2018-10-19T13:09:23.417Z,17.60
2018-10-19T13:11:51.987Z,17.60
2018-10-19T13:14:20.505Z,17.70
2018-10-19T13:16:49.010Z,17.80
2018-10-19T13:19:17.506Z,17.90
2018-10-19T13:21:46.065Z,18.00
2018-10-19T13:24:14.782Z,18.00
2018-10-19T13:26:43.181Z,18.10
2018-10-19T13:29:11.734Z,18.20
2018-10-19T13:31:40.768Z,18.10
2018-10-19T13:34:09.284Z,17.90
2018-10-19T13:36:37.827Z,17.90
2018-10-19T13:39:08.757Z,17.80
2018-10-19T13:41:37.424Z,17.60
2018-10-19T13:44:06.052Z,17.50
2018-10-19T13:46:34.719Z,17.50
2018-10-19T13:49:03.338Z,17.40
2018-10-19T13:51:32.042Z,17.40
2018-10-19T13:54:00.560Z,17.50
2018-10-19T13:56:29.104Z,17.70
2018-10-19T13:58:57.665Z,17.60
2018-10-19T14:01:26.234Z,17.50
2018-10-19T14:03:54.850Z,17.50
2018-10-19T14:06:23.375Z,17.40
2018-10-19T14:08:51.910Z,17.30
2018-10-19T14:11:20.482Z,17.30
2018-10-19T14:13:49.022Z,17.20
2018-10-19T14:16:17.568Z,17.20
2018-10-19T14:18:46.498Z,17.10
2018-10-19T14:21:15.175Z,17.00
2018-10-19T14:23:43.840Z,17.00
2018-10-19T14:26:12.550Z,17.00
2018-10-19T14:28:41.217Z,17.00
2018-10-19T14:31:09.771Z,17.00
2018-10-19T14:33:38.399Z,17.00
2018-10-19T14:36:06.927Z,17.00
2018-10-19T14:38:35.475Z,17.00
2018-10-19T14:41:04.019Z,17.10
2018-10-19T14:43:32.540Z,17.10
2018-10-19T14:46:01.048Z,17.10
2018-10-19T14:48:29.626Z,17.10
2018-10-19T14:50:58.163Z,17.10
2018-10-19T14:53:26.772Z,17.00
2018-10-19T14:55:55.332Z,16.80
2018-10-19T14:58:23.872Z,16.80
2018-10-19T15:00:52.433Z,16.80
2018-10-19T15:03:20.974Z,16.70
2018-10-19T15:05:49.529Z,16.70
2018-10-19T15:08:18.109Z,16.60
2018-10-19T15:10:47.052Z,16.60
2018-10-19T15:13:15.378Z,16.60
2018-10-19T15:15:43.906Z,16.50
2018-10-19T15:18:12.511Z,16.50
2018-10-19T15:20:40.957Z,16.50
2018-10-19T15:23:09.499Z,16.50
2018-10-19T15:25:38.039Z,16.50
2018-10-19T15:28:06.559Z,16.50
2018-10-19T15:30:35.195Z,16.50
2018-10-19T15:33:03.929Z,16.50
2018-10-19T15:35:32.461Z,16.40
2018-10-19T15:38:01.089Z,16.40
2018-10-19T15:40:29.634Z,16.40
2018-10-19T15:42:58.178Z,16.40
2018-10-19T15:45:26.861Z,16.30
2018-10-19T15:47:55.532Z,16.30
2018-10-19T15:50:24.025Z,16.30
2018-10-19T15:52:52.578Z,16.30
2018-10-19T15:55:21.141Z,16.20
2018-10-19T15:57:49.657Z,16.20
2018-10-19T16:00:18.312Z,16.20
2018-10-19T16:02:46.894Z,16.20
2018-10-19T16:05:15.438Z,16.10
2018-10-19T16:07:43.928Z,16.10
2018-10-19T16:10:12.480Z,16.10
2018-10-19T16:12:41.024Z,16.10
2018-10-19T16:15:10.429Z,16.10
2018-10-19T16:17:38.971Z,16.10
2018-10-19T16:20:09.049Z,16.00
2018-10-19T16:22:38.000Z,16.00
2018-10-19T16:25:07.053Z,15.90
2018-10-19T16:27:36.070Z,15.90
2018-10-19T16:30:05.199Z,15.80
2018-10-19T16:32:33.738Z,15.80
2018-10-19T16:35:02.248Z,15.80
2018-10-19T16:37:30.881Z,15.80
2018-10-19T16:39:59.458Z,15.70
2018-10-19T16:42:27.988Z,15.70
2018-10-19T16:44:56.520Z,15.70
2018-10-19T16:47:25.087Z,15.70
2018-10-19T16:49:53.580Z,15.70
2018-10-19T16:52:22.301Z,15.60
2018-10-19T16:54:50.905Z,15.60
2018-10-19T16:57:19.478Z,15.60
2018-10-19T16:59:48.028Z,15.60
2018-10-19T17:02:16.562Z,15.60
2018-10-19T17:04:45.116Z,15.60
2018-10-19T17:07:13.654Z,15.60
2018-10-19T17:09:42.208Z,15.50
2018-10-19T17:12:10.797Z,15.50
2018-10-19T17:14:39.301Z,15.50
2018-10-19T17:17:07.846Z,15.50
2018-10-19T17:19:36.369Z,15.40
2018-10-19T17:22:05.383Z,15.40
2018-10-19T17:24:33.962Z,15.40
2018-10-19T17:27:02.568Z,15.40
2018-10-19T17:29:31.050Z,15.30
2018-10-19T17:31:59.601Z,15.40
2018-10-19T17:34:28.117Z,15.30
2018-10-19T17:36:56.798Z,15.30
2018-10-19T17:39:25.326Z,15.30
2018-10-19T17:41:53.917Z,15.30
2018-10-19T17:44:45.671Z,15.30
2018-10-19T17:47:14.306Z,15.20
2018-10-19T17:49:42.828Z,15.20
2018-10-19T17:52:11.350Z,15.20
2018-10-19T17:54:39.937Z,15.20
2018-10-19T17:57:08.704Z,15.20
2018-10-19T17:59:37.214Z,15.20
2018-10-19T18:02:05.959Z,15.20
2018-10-19T18:04:34.556Z,15.20
2018-10-19T18:07:03.169Z,15.20
2018-10-19T18:09:31.694Z,15.20
2018-10-19T18:12:00.200Z,15.10
2018-10-19T18:14:28.699Z,15.10
2018-10-19T18:16:57.271Z,15.10
2018-10-19T18:19:25.807Z,15.10
2018-10-19T18:21:54.570Z,15.10
2018-10-19T18:24:23.046Z,15.10
2018-10-19T18:26:51.536Z,15.00
2018-10-19T18:29:20.154Z,15.00
2018-10-19T18:31:48.678Z,15.00
2018-10-19T18:34:17.217Z,15.00
2018-10-19T18:36:45.744Z,15.00
2018-10-19T18:39:14.824Z,15.00
2018-10-19T18:41:43.983Z,15.00
2018-10-19T18:44:12.777Z,15.00
2018-10-19T18:46:41.343Z,15.00
2018-10-19T18:49:09.943Z,15.00
2018-10-19T18:51:38.491Z,15.00
2018-10-19T18:54:07.085Z,15.00
2018-10-19T18:56:35.578Z,15.00
2018-10-19T18:59:04.158Z,14.90
2018-10-19T19:01:32.717Z,14.90
2018-10-19T19:04:01.301Z,14.80
2018-10-19T19:06:29.873Z,14.70
2018-10-19T19:08:58.431Z,14.70
2018-10-19T19:11:26.943Z,14.60
2018-10-19T19:13:55.504Z,14.50
2018-10-19T19:16:30.898Z,14.40
2018-10-19T19:18:59.456Z,14.40
2018-10-19T19:21:28.025Z,14.30
2018-10-19T19:24:01.776Z,14.20
2018-10-19T19:26:30.393Z,14.20
2018-10-19T19:28:59.147Z,14.10
2018-10-19T19:31:27.611Z,14.00
2018-10-19T19:34:01.523Z,13.90
2018-10-19T19:36:30.170Z,13.80
2018-10-19T19:38:58.679Z,13.80
2018-10-19T19:41:32.535Z,13.80
2018-10-19T19:44:01.083Z,13.70
2018-10-19T19:46:30.467Z,13.60
2018-10-19T19:49:04.318Z,13.60
2018-10-19T19:51:33.610Z,13.50
2018-10-19T19:54:02.138Z,13.40
2018-10-19T19:56:30.671Z,13.30
2018-10-19T19:58:59.249Z,13.20
2018-10-19T20:01:27.847Z,13.10
2018-10-19T20:03:56.745Z,13.10
2018-10-19T20:06:25.312Z,13.00
2018-10-19T20:08:53.806Z,12.90
2018-10-19T20:11:22.355Z,12.80
2018-10-19T20:13:50.898Z,12.80
2018-10-19T20:16:19.462Z,12.80
2018-10-19T20:18:47.987Z,12.70
2018-10-19T20:21:16.504Z,12.60
2018-10-19T20:23:45.037Z,12.60
2018-10-19T20:26:13.613Z,12.50
2018-10-19T20:28:42.073Z,12.50
2018-10-19T20:31:10.551Z,12.40
2018-10-19T20:33:39.093Z,12.40
2018-10-19T20:36:07.599Z,12.30
2018-10-19T20:38:36.099Z,12.30
2018-10-19T20:41:05.013Z,12.20
2018-10-19T20:43:33.519Z,12.20
2018-10-19T20:46:02.041Z,12.20
2018-10-19T20:48:30.588Z,12.10
2018-10-19T20:50:59.121Z,12.00
2018-10-19T20:53:27.638Z,12.00
2018-10-19T20:55:56.231Z,11.90
2018-10-19T20:58:24.686Z,11.90
2018-10-19T21:00:53.305Z,11.80
2018-10-19T21:03:21.728Z,11.80
2018-10-19T21:05:50.234Z,11.70
2018-10-19T21:08:18.744Z,11.70
2018-10-19T21:10:47.265Z,11.60
2018-10-19T21:13:15.785Z,11.60
2018-10-19T21:15:44.332Z,11.50
2018-10-19T21:18:12.936Z,11.50
2018-10-19T21:20:41.456Z,11.40
2018-10-19T21:23:09.979Z,11.30
2018-10-19T21:25:41.628Z,11.30
2018-10-19T21:28:10.144Z,11.30
2018-10-19T21:30:38.672Z,11.20
2018-10-19T21:33:07.242Z,11.20
2018-10-19T21:35:35.766Z,11.10
2018-10-19T21:38:04.327Z,11.10
2018-10-19T21:40:32.918Z,11.00
2018-10-19T21:43:02.485Z,11.00
2018-10-19T21:45:31.029Z,11.00
2018-10-19T21:47:59.549Z,11.00
2018-10-19T21:50:28.108Z,11.00
2018-10-19T21:52:56.639Z,11.00
2018-10-19T21:55:25.304Z,11.00
2018-10-19T21:57:53.833Z,11.00
2018-10-19T22:00:22.457Z,10.90
2018-10-19T22:02:50.934Z,10.90
2018-10-19T22:05:19.484Z,10.90
2018-10-19T22:07:47.991Z,10.80
2018-10-19T22:10:16.813Z,10.80
2018-10-19T22:12:45.379Z,10.80
2018-10-19T22:15:13.877Z,10.80
2018-10-19T22:17:42.385Z,10.80
2018-10-19T22:20:10.898Z,10.70
2018-10-19T22:22:39.503Z,10.70
2018-10-19T22:25:08.138Z,10.70
2018-10-19T22:27:36.667Z,10.70
2018-10-19T22:30:06.305Z,10.60
2018-10-19T22:32:35.075Z,10.60
2018-10-19T22:35:03.725Z,10.60
2018-10-19T22:37:32.299Z,10.50
2018-10-19T22:40:00.824Z,10.50
2018-10-19T22:42:29.326Z,10.50
2018-10-19T22:44:57.894Z,10.40
2018-10-19T22:47:26.388Z,10.30
2018-10-19T22:49:54.894Z,10.20
2018-10-19T22:52:23.398Z,10.20
2018-10-19T22:54:52.239Z,10.10
2018-10-19T22:57:20.792Z,10.10
2018-10-19T22:59:49.431Z,10.10
2018-10-19T23:02:17.975Z,10.00
2018-10-19T23:04:46.450Z,10.00
2018-10-19T23:07:21.748Z,9.90
2018-10-19T23:09:50.243Z,9.80
2018-10-19T23:12:18.873Z,9.90
2018-10-19T23:14:47.519Z,9.80
2018-10-19T23:17:16.658Z,9.80
2018-10-19T23:19:45.158Z,9.80
2018-10-19T23:22:13.656Z,9.70
2018-10-19T23:24:42.172Z,9.70
2018-10-19T23:27:10.676Z,9.70
2018-10-19T23:29:39.528Z,9.70
2018-10-19T23:32:08.055Z,9.60
2018-10-19T23:34:36.642Z,9.60
2018-10-19T23:37:05.854Z,9.60
2018-10-19T23:39:34.364Z,9.50
2018-10-19T23:42:02.878Z,9.50
2018-10-19T23:44:31.397Z,9.50
2018-10-19T23:46:59.949Z,9.50
2018-10-19T23:49:28.633Z,9.40
2018-10-19T23:51:57.140Z,9.40
2018-10-19T23:54:25.645Z,9.40
2018-10-19T23:56:54.192Z,9.40
2018-10-19T23:59:22.732Z,9.30
